Data for 02/16/2015

Time Sea-Level Adjusted Pressure Absolute Pressure Temperature Relative Humidity Dew Point   
(mb) (inHg) (mb) (inHg) (C) (F) (%) (C) (F)
00:05 1023 30.21 852 25.16 -1.5 29.3 92 -2.6 27.3
00:10 1023 30.21 852 25.16 -1.5 29.3 93 -2.6 27.4
00:15 1023 30.21 852 25.16 -1.5 29.3 93 -2.5 27.4
00:20 1023 30.21 852 25.16 -1.5 29.2 93 -2.6 27.4
00:25 1023 30.21 852 25.16 -1.6 29.2 93 -2.6 27.4
00:30 1023 30.21 852 25.16 -1.6 29.1 92 -2.7 27.1
00:35 1023 30.21 852 25.16 -1.7 29 92 -2.9 26.9
00:40 1023 30.21 852 25.16 -1.8 28.7 92 -3 26.6
00:45 1023 30.21 852 25.16 -1.9 28.6 92 -3.1 26.5
00:50 1023 30.21 852 25.16 -1.9 28.5 92 -3.1 26.5
00:55 1023 30.21 852 25.16 -1.9 28.6 92 -3.1 26.4
01:00 1023 30.21 852 25.16 -1.9 28.6 92 -3.1 26.5
01:05 1023 30.21 852 25.16 -1.9 28.6 92 -3 26.5
01:10 1023 30.21 852 25.16 -1.9 28.6 92 -3 26.6
01:15 1023 30.21 852 25.16 -1.8 28.7 92 -3 26.7
01:20 1023 30.21 852 25.16 -1.8 28.8 92 -2.8 26.9
01:25 1023 30.21 852 25.16 -1.8 28.8 92 -2.9 26.8
01:30 1023 30.21 852 25.16 -1.9 28.7 92 -3 26.6
01:35 1023 30.21 852 25.16 -1.9 28.5 92 -3 26.6
01:40 1023 30.21 852 25.16 -2 28.4 93 -3 26.6
01:45 1023 30.21 852 25.16 -2 28.5 93 -3 26.6
01:50 1023 30.21 852 25.16 -1.9 28.5 92 -3 26.6
01:55 1023 30.21 852 25.16 -1.9 28.5 92 -3 26.6
02:00 1023 30.21 852 25.16 -1.9 28.6 92 -3 26.7
02:05 1023 30.21 852 25.16 -1.8 28.7 92 -3 26.6
02:10 1023 30.21 852 25.16 -1.9 28.6 91 -3.1 26.4
02:15 1023 30.21 852 25.16 -2 28.5 92 -3.1 26.4
02:20 1023 30.21 852 25.16 -2.1 28.3 91 -3.4 26
02:25 1023 30.21 852 25.16 -2.2 28 91 -3.5 25.6
02:30 1023 30.21 852 25.16 -2.4 27.7 91 -3.7 25.3
02:35 1023 30.21 852 25.16 -2.5 27.5 92 -3.7 25.4
02:40 1023 30.21 852 25.16 -2.6 27.3 92 -3.7 25.3
02:45 1023 30.21 852 25.16 -2.6 27.3 92 -3.7 25.3
02:50 1023 30.21 852 25.16 -2.6 27.3 92 -3.8 25.2
02:55 1023 30.21 852 25.16 -2.7 27.2 91 -3.9 25
03:00 1023 30.21 852 25.16 -2.6 27.3 91 -3.9 25
03:05 1023 30.21 853 25.19 -2.6 27.4 90 -4 24.8
03:10 1023 30.21 853 25.19 -2.6 27.4 88 -4.3 24.3
03:15 1024 30.24 853 25.19 -2.5 27.5 88 -4.3 24.3
03:20 1024 30.24 853 25.19 -2.4 27.7 88 -4.2 24.5
03:25 1024 30.24 853 25.19 -2.4 27.7 87 -4.2 24.4
03:30 1024 30.24 853 25.19 -2.4 27.7 86 -4.4 24.1
03:35 1024 30.24 853 25.19 -2.3 27.9 85 -4.4 24
03:40 1024 30.24 853 25.19 -2.3 27.9 85 -4.5 24
03:45 1024 30.24 853 25.19 -2.3 28 84 -4.6 23.7
03:50 1024 30.24 853 25.19 -2.2 28.1 83 -4.7 23.5
03:55 1024 30.24 853 25.19 -2.2 28.1 83 -4.7 23.5
04:00 1024 30.24 853 25.19 -2.1 28.1 82 -4.8 23.4
04:05 1024 30.24 853 25.19 -2.1 28.2 81 -4.9 23.2
04:10 1024 30.24 853 25.19 -2.1 28.2 82 -4.8 23.3
04:15 1024 30.24 853 25.19 -2.2 28.1 82 -4.9 23.2
04:20 1024 30.24 853 25.19 -2.2 28.1 83 -4.7 23.5
04:25 1024 30.24 853 25.19 -2.2 28.1 82 -4.8 23.4
04:30 1024 30.24 853 25.19 -2.2 28 83 -4.8 23.4
04:35 1024 30.24 853 25.19 -2.2 28 83 -4.8 23.4
04:40 1024 30.24 853 25.19 -2.3 27.9 83 -4.8 23.3
04:45 1024 30.24 853 25.19 -2.4 27.6 86 -4.4 24
04:50 1024 30.24 853 25.19 -2.7 27.2 86 -4.8 23.4
04:55 1024 30.24 853 25.19 -2.7 27.2 85 -4.9 23.2
05:00 1024 30.24 853 25.19 -2.6 27.3 82 -5.3 22.4
05:05 1024 30.24 853 25.19 -2.6 27.4 79 -5.7 21.7
05:10 1024 30.24 853 25.19 -2.5 27.6 77 -5.9 21.3
05:15 1024 30.24 853 25.19 -2.4 27.7 73 -6.7 20
05:20 1024 30.24 853 25.19 -2.3 27.9 73 -6.5 20.2
05:25 1024 30.24 853 25.19 -2.4 27.8 69 -7.2 19
05:30 1024 30.24 853 25.19 -2.4 27.7 74 -6.4 20.5
05:35 1024 30.24 853 25.19 -2.6 27.4 71 -7 19.3
05:40 1024 30.24 853 25.19 -2.7 27.2 70 -7.3 18.8
05:45 1024 30.24 853 25.19 -2.8 26.9 70 -7.7 18.2
05:50 1024 30.24 853 25.19 -2.9 26.7 71 -7.6 18.4
05:55 1024 30.24 853 25.19 -3.1 26.5 71 -7.6 18.3
06:00 1024 30.24 853 25.19 -3.1 26.4 70 -7.8 18
06:05 1024 30.24 854 25.22 -3.2 26.3 72 -7.4 18.6
06:10 1024 30.24 854 25.22 -3.2 26.2 74 -7.2 19
06:15 1024 30.24 854 25.22 -3.2 26.3 74 -7.2 19.1
06:20 1025 30.27 854 25.22 -3.2 26.2 75 -7.1 19.2
06:25 1025 30.27 854 25.22 -3.3 26.1 82 -5.9 21.3
06:30 1025 30.27 854 25.22 -3.2 26.3 82 -5.9 21.4
06:35 1025 30.27 854 25.22 -3.1 26.4 81 -5.9 21.4
06:40 1025 30.27 854 25.22 -3.1 26.4 81 -5.9 21.4
06:45 1025 30.27 854 25.22 -3 26.6 81 -5.8 21.6
06:50 1025 30.27 854 25.22 -2.9 26.7 79 -6.1 21.1
06:55 1025 30.27 854 25.22 -3 26.6 80 -6 21.2
07:00 1025 30.27 854 25.22 -3 26.6 79 -6.1 21.1
07:05 1025 30.27 854 25.22 -3 26.6 81 -5.8 21.6
07:10 1025 30.27 854 25.22 -3.1 26.4 81 -5.8 21.5
07:15 1025 30.27 854 25.22 -3.3 26.1 82 -6 21.2
07:20 1025 30.27 854 25.22 -3.4 25.8 81 -6.3 20.7
07:25 1025 30.27 854 25.22 -3.5 25.6 78 -6.8 19.8
07:30 1025 30.27 854 25.22 -3.6 25.4 78 -7 19.4
07:35 1025 30.27 854 25.22 -3.8 25.2 76 -7.4 18.7
07:40 1025 30.27 854 25.22 -4 24.9 76 -7.6 18.3
07:45 1025 30.27 854 25.22 -4.2 24.5 76 -7.7 18.1
07:50 1025 30.27 854 25.22 -4.3 24.3 75 -8.1 17.4
07:55 1025 30.27 854 25.22 -4.2 24.4 74 -8.2 17.3
08:00 1025 30.27 854 25.22 -4.3 24.3 73 -8.4 16.8
08:05 1025 30.27 854 25.22 -4.1 24.5 72 -8.4 16.9
08:10 1025 30.27 855 25.25 -4.3 24.3 74 -8.3 17
08:15 1025 30.27 855 25.25 -4.5 23.9 75 -8.3 17
08:20 1026 30.3 855 25.25 -4.6 23.7 75 -8.4 16.9
08:25 1026 30.3 855 25.25 -4.7 23.5 74 -8.7 16.4
08:30 1026 30.3 855 25.25 -4.7 23.6 74 -8.6 16.5
08:35 1026 30.3 855 25.25 -4.7 23.6 72 -8.9 16
08:40 1026 30.3 855 25.25 -4.4 24 71 -8.9 16
08:45 1026 30.3 855 25.25 -4.4 24 71 -9 15.9
08:50 1026 30.3 855 25.25 -4.4 24.1 72 -8.8 16.2
08:55 1026 30.3 855 25.25 -4.2 24.4 71 -8.7 16.3
09:00 1026 30.3 855 25.25 -4.1 24.6 71 -8.7 16.4
09:05 1026 30.3 856 25.28 -4 24.9 70 -8.6 16.6
09:10 1027 30.33 856 25.28 -3.8 25.1 70 -8.4 16.8
09:15 1027 30.33 856 25.28 -4 24.8 72 -8.4 16.9
09:20 1027 30.33 856 25.28 -4.2 24.4 69 -9 15.7
09:25 1027 30.33 856 25.28 -4.1 24.6 70 -8.8 16.2
09:30 1026 30.3 856 25.28 -4.2 24.4 72 -8.5 16.7
09:35 1026 30.3 856 25.28 -4.2 24.4 73 -8.4 16.9
09:40 1027 30.33 856 25.28 -4.1 24.6 72 -8.4 16.9
09:45 1027 30.33 856 25.28 -4.1 24.6 72 -8.4 16.8
09:50 1026 30.3 856 25.28 -4 24.8 72 -8.3 17.1
09:55 1027 30.33 856 25.28 -4 24.8 73 -8.2 17.3
10:00 1027 30.33 856 25.28 -4.1 24.7 74 -8.1 17.4
10:05 1027 30.33 856 25.28 -4 24.8 74 -8 17.6
10:10 1027 30.33 856 25.28 -4 24.8 75 -7.8 17.9
10:15 1027 30.33 856 25.28 -4.1 24.7 75 -7.9 17.7
10:20 1027 30.33 856 25.28 -4 24.7 75 -7.9 17.8
10:25 1027 30.33 856 25.28 -4 24.8 74 -8 17.6
10:30 1027 30.33 857 25.31 -3.6 25.5 73 -7.7 18.1
10:35 1027 30.33 857 25.31 -3.4 25.9 74 -7.3 18.8
10:40 1027 30.33 857 25.31 -3.2 26.2 71 -7.8 18
10:45 1028 30.36 857 25.31 -2.7 27.2 70 -7.5 18.6
10:50 1027 30.33 857 25.31 -2.3 27.9 68 -7.4 18.6
10:55 1027 30.33 857 25.31 -2.7 27.2 73 -6.9 19.5
11:00 1027 30.33 857 25.31 -3 26.6 72 -7.4 18.7
11:05 1027 30.33 857 25.31 -3.3 26 73 -7.5 18.4
11:10 1027 30.33 857 25.31 -3.3 26 72 -7.7 18.1
11:15 1027 30.33 857 25.31 -3.1 26.3 71 -7.7 18.1
11:20 1027 30.33 857 25.31 -3.2 26.3 72 -7.6 18.4
11:25 1027 30.33 857 25.31 -3.4 26 71 -7.9 17.8
11:30 1027 30.33 857 25.31 -3.4 25.9 71 -7.9 17.8
11:35 1027 30.33 857 25.31 -3.1 26.4 68 -8.1 17.4
11:40 1027 30.33 857 25.31 -2.5 27.5 66 -8 17.6
11:45 1027 30.33 857 25.31 -2.1 28.1 66 -7.6 18.2
11:50 1027 30.33 857 25.31 -1.8 28.7 63 -8 17.7
11:55 1027 30.33 857 25.31 -1.6 29.1 64 -7.5 18.4
12:00 1027 30.33 857 25.31 -1.2 29.8 62 -7.6 18.3
12:05 1027 30.33 857 25.31 -1.1 30.1 61 -7.6 18.3
12:10 1027 30.33 857 25.31 -0.9 30.4 60 -7.7 18.2
12:15 1027 30.33 857 25.31 -0.8 30.6 59 -7.9 17.8
12:20 1027 30.33 857 25.31 -0.4 31.4 55 -8.3 17
12:25 1027 30.33 857 25.31 -0.4 31.3 56 -8.1 17.4
12:30 1027 30.33 857 25.31 0.1 32.2 51 -8.9 16
12:35 1027 30.33 856 25.28 0.4 32.6 51 -8.6 16.5
12:40 1027 30.33 856 25.28 0.1 32.2 56 -7.7 18.1
12:45 1027 30.33 856 25.28 0.1 32.1 57 -7.4 18.7
12:50 1027 30.33 856 25.28 0.1 32.2 56 -7.7 18.1
12:55 1027 30.33 856 25.28 0.8 33.4 54 -7.5 18.6
13:00 1027 30.33 856 25.28 1 33.8 56 -6.8 19.8
13:05 1027 30.33 856 25.28 0.5 32.8 55 -7.7 18.2
13:10 1027 30.33 856 25.28 0.6 33.2 53 -7.9 17.8
13:15 1027 30.33 856 25.28 1.1 34 54 -7.1 19.2
13:20 1027 30.33 856 25.28 0.9 33.7 54 -7.3 18.9
13:25 1027 30.33 856 25.28 1.4 34.5 45 -9.3 15.3
13:30 1027 30.33 856 25.28 0.8 33.4 55 -7.3 18.8
13:35 1027 30.33 856 25.28 0.5 33 56 -7.2 19
13:40 1027 30.33 856 25.28 0.1 32.3 52 -8.6 16.5
13:45 1027 30.33 856 25.28 0.2 32.4 53 -8.3 17.1
13:50 1027 30.33 856 25.28 -0.5 31 58 -7.8 17.9
13:55 1027 30.33 856 25.28 -0.4 31.3 53 -8.8 16.1
14:00 1026 30.3 856 25.28 -0 31.9 50 -9.2 15.5
14:05 1026 30.3 856 25.28 0.5 32.8 46 -9.9 14.3
14:10 1026 30.3 855 25.25 1 33.8 43 -10.4 13.4
14:15 1026 30.3 855 25.25 0.9 33.7 47 -9.2 15.5
14:20 1026 30.3 855 25.25 1.7 35 42 -9.9 14.1
14:25 1026 30.3 855 25.25 1.5 34.8 43 -9.9 14.2
14:30 1026 30.3 855 25.25 1 33.7 46 -9.4 15.1
14:35 1026 30.3 855 25.25 1.5 34.7 44 -9.4 15.2
14:40 1026 30.3 855 25.25 2.2 36 39 -10.4 13.2
14:45 1026 30.3 855 25.25 1.9 35.5 39 -10.6 12.9
14:50 1026 30.3 855 25.25 1.9 35.4 38 -11 12.3
14:55 1026 30.3 855 25.25 1.7 35 42 -9.9 14.2
15:00 1026 30.3 855 25.25 1.2 34.2 44 -9.8 14.3
15:05 1026 30.3 855 25.25 1 33.8 45 -9.5 14.8
15:10 1026 30.3 855 25.25 1.1 34 44 -9.8 14.4
15:15 1026 30.3 855 25.25 1.1 33.9 45 -9.6 14.7
15:20 1026 30.3 855 25.25 1.1 34 46 -9.4 15.2
15:25 1026 30.3 855 25.25 1 33.8 44 -9.9 14.1
15:30 1026 30.3 855 25.25 0.6 33.1 45 -9.9 14.1
15:35 1026 30.3 855 25.25 0.7 33.2 44 -10.3 13.5
15:40 1026 30.3 855 25.25 0.3 32.5 54 -7.9 17.7
15:45 1026 30.3 855 25.25 -0.8 30.6 57 -8.4 17
15:50 1026 30.3 855 25.25 -1.1 30 57 -8.5 16.7
15:55 1026 30.3 855 25.25 -1.1 30 60 -7.9 17.7
16:00 1026 30.3 855 25.25 -0.9 30.4 59 -7.9 17.8
16:05 1026 30.3 855 25.25 -0.6 30.9 50 -9.8 14.4
16:10 1026 30.3 855 25.25 -0.7 30.7 56 -8.5 16.7
16:15 1026 30.3 855 25.25 -0.5 31.1 51 -9.4 15.1
16:20 1026 30.3 855 25.25 -0.4 31.2 53 -8.8 16.2
16:25 1026 30.3 855 25.25 -0.1 31.8 50 -9.2 15.4
16:30 1026 30.3 855 25.25 -0.3 31.5 50 -9.5 14.9
16:35 1026 30.3 855 25.25 -0.2 31.6 48 -10 14.1
16:40 1026 30.3 855 25.25 -0.2 31.6 55 -8.3 17.1
16:45 1026 30.3 855 25.25 0.3 32.5 54 -8 17.6
16:50 1026 30.3 855 25.25 0.4 32.6 54 -7.9 17.8
16:55 1026 30.3 855 25.25 0.3 32.5 48 -9.5 14.9
17:00 1026 30.3 855 25.25 0.5 33 44 -10.4 13.3
17:05 1026 30.3 855 25.25 0.8 33.4 42 -10.9 12.5
17:10 1026 30.3 855 25.25 0.8 33.4 44 -10.1 13.8
17:15 1026 30.3 855 25.25 0.4 32.8 44 -10.4 13.3
17:20 1026 30.3 855 25.25 0.1 32.2 46 -10.2 13.6
17:25 1026 30.3 855 25.25 -0.2 31.6 48 -10 14
17:30 1026 30.3 855 25.25 -0.2 31.6 48 -10 14
17:35 1026 30.3 855 25.25 -0.1 31.8 47 -10.1 13.9
17:40 1026 30.3 855 25.25 -0.1 31.9 46 -10.3 13.4
17:45 1026 30.3 855 25.25 -0.1 31.8 47 -10.1 13.8
17:50 1026 30.3 855 25.25 -0.1 31.8 46 -10.5 13.1
17:55 1026 30.3 855 25.25 -0.3 31.5 46 -10.5 13.1
18:00 1026 30.3 855 25.25 -0.3 31.5 47 -10.2 13.7
18:05 1026 30.3 855 25.25 -0.4 31.3 48 -10.1 13.8
18:10 1026 30.3 855 25.25 -0.4 31.3 49 -9.8 14.4
18:15 1026 30.3 855 25.25 -0.4 31.4 49 -9.7 14.5
18:20 1026 30.3 855 25.25 -0.3 31.4 50 -9.6 14.7
18:25 1026 30.3 855 25.25 -0.6 30.9 51 -9.5 14.9
18:30 1026 30.3 855 25.25 -0.8 30.6 52 -9.6 14.8
18:35 1026 30.3 855 25.25 -0.9 30.5 51 -9.7 14.6
18:40 1026 30.3 855 25.25 -0.9 30.4 52 -9.7 14.6
18:45 1026 30.3 855 25.25 -1 30.2 52 -9.8 14.4
18:50 1026 30.3 855 25.25 -1.1 30 52 -9.8 14.3
18:55 1026 30.3 855 25.25 -1.1 30 51 -10.1 13.8
19:00 1026 30.3 855 25.25 -1.2 29.9 50 -10.2 13.6
19:05 1026 30.3 855 25.25 -1.3 29.6 51 -10.2 13.7
19:10 1026 30.3 855 25.25 -1.5 29.3 51 -10.3 13.4
19:15 1026 30.3 855 25.25 -1.6 29.2 52 -10.2 13.7
19:20 1026 30.3 855 25.25 -1.7 29 54 -9.8 14.3
19:25 1026 30.3 855 25.25 -1.7 28.9 54 -9.8 14.4
19:30 1026 30.3 855 25.25 -1.8 28.8 54 -10 14.1
19:35 1026 30.3 855 25.25 -1.8 28.8 53 -10.1 13.9
19:40 1026 30.3 855 25.25 -1.8 28.7 54 -9.8 14.3
19:45 1026 30.3 855 25.25 -1.9 28.6 56 -9.6 14.7
19:50 1026 30.3 855 25.25 -2 28.4 56 -9.6 14.7
19:55 1026 30.3 855 25.25 -2 28.4 57 -9.3 15.2
20:00 1026 30.3 855 25.25 -2 28.4 58 -9.1 15.6
20:05 1026 30.3 855 25.25 -1.9 28.5 59 -9 15.8
20:10 1026 30.3 855 25.25 -1.9 28.6 59 -8.8 16.1
20:15 1026 30.3 855 25.25 -2 28.5 60 -8.8 16.2
20:20 1026 30.3 855 25.25 -2 28.4 60 -8.7 16.4
20:25 1026 30.3 855 25.25 -2.1 28.1 61 -8.7 16.4
20:30 1026 30.3 855 25.25 -2.3 28 61 -8.7 16.4
20:35 1026 30.3 855 25.25 -2.2 28 62 -8.6 16.4
20:40 1026 30.3 855 25.25 -2.4 27.7 63 -8.5 16.7
20:45 1026 30.3 855 25.25 -2.5 27.4 64 -8.5 16.7
20:50 1026 30.3 855 25.25 -2.6 27.4 63 -8.6 16.5
20:55 1026 30.3 855 25.25 -2.6 27.4 64 -8.6 16.6
21:00 1026 30.3 855 25.25 -2.6 27.3 64 -8.5 16.7
21:05 1026 30.3 855 25.25 -2.6 27.4 64 -8.5 16.6
21:10 1026 30.3 855 25.25 -2.4 27.6 63 -8.5 16.7
21:15 1026 30.3 855 25.25 -2.6 27.4 65 -8.3 17.1
21:20 1026 30.3 855 25.25 -2.7 27.1 64 -8.6 16.6
21:25 1025 30.27 855 25.25 -2.7 27.2 64 -8.6 16.5
21:30 1025 30.27 855 25.25 -2.7 27.2 61 -9.2 15.5
21:35 1025 30.27 855 25.25 -2.7 27.2 61 -9.2 15.4
21:40 1025 30.27 855 25.25 -2.6 27.2 61 -9.1 15.7
21:45 1025 30.27 855 25.25 -2.8 27 61 -9.3 15.3
21:50 1025 30.27 855 25.25 -2.9 26.7 62 -9.2 15.5
21:55 1025 30.27 855 25.25 -3 26.5 64 -9 15.8
22:00 1025 30.27 854 25.22 -3.1 26.4 65 -8.8 16.1
22:05 1025 30.27 855 25.25 -3.2 26.2 66 -8.7 16.3
22:10 1025 30.27 855 25.25 -3.2 26.2 66 -8.7 16.3
22:15 1025 30.27 855 25.25 -3.1 26.4 64 -8.9 15.9
22:20 1026 30.3 855 25.25 -3.1 26.5 65 -8.7 16.3
22:25 1026 30.3 855 25.25 -3.1 26.5 66 -8.6 16.6
22:30 1026 30.3 855 25.25 -3.1 26.3 66 -8.7 16.4
22:35 1026 30.3 855 25.25 -3.2 26.3 66 -8.7 16.3
22:40 1026 30.3 855 25.25 -3.2 26.2 66 -8.7 16.3
22:45 1026 30.3 855 25.25 -3.3 26 66 -8.9 16
22:50 1025 30.27 855 25.25 -3.4 25.9 65 -9 15.7
22:55 1025 30.27 855 25.25 -3.4 25.9 64 -9.3 15.3
23:00 1025 30.27 855 25.25 -3.3 26 64 -9.3 15.3
23:05 1025 30.27 855 25.25 -3.3 26.1 63 -9.3 15.2
23:10 1025 30.27 855 25.25 -3.2 26.2 63 -9.3 15.2
23:15 1025 30.27 855 25.25 -3.2 26.3 63 -9.3 15.3
23:20 1025 30.27 855 25.25 -3.2 26.2 63 -9.2 15.4
23:25 1025 30.27 855 25.25 -3.2 26.3 62 -9.5 14.9
23:30 1025 30.27 855 25.25 -3.1 26.4 62 -9.3 15.2
23:35 1025 30.27 855 25.25 -3.1 26.5 63 -9.2 15.4
23:40 1025 30.27 855 25.25 -3 26.5 61 -9.5 14.9
23:45 1025 30.27 854 25.22 -3.1 26.5 61 -9.5 14.9
23:50 1025 30.27 854 25.22 -3.1 26.4 62 -9.4 15.1
23:55 1025 30.27 854 25.22 -3.1 26.5 62 -9.4 15.1
24:00 1025 30.27 854 25.22 -3 26.6 62 -9.3 15.2